sensor_id;sensor_type;location;lat;lon;timestamp;P1;durP1;ratioP1;P2;durP2;ratioP2
51660;SDS011;37741;49.748;8.490;2024-03-02T00:01:10;7.60;;;4.75;;
51660;SDS011;37741;49.748;8.490;2024-03-02T00:03:39;6.03;;;4.85;;
51660;SDS011;37741;49.748;8.490;2024-03-02T00:06:05;7.63;;;4.82;;
51660;SDS011;37741;49.748;8.490;2024-03-02T00:08:32;7.75;;;4.75;;
51660;SDS011;37741;49.748;8.490;2024-03-02T00:10:58;9.43;;;5.38;;
51660;SDS011;37741;49.748;8.490;2024-03-02T00:13:24;6.32;;;4.60;;
51660;SDS011;37741;49.748;8.490;2024-03-02T00:15:54;7.40;;;5.03;;
51660;SDS011;37741;49.748;8.490;2024-03-02T00:18:25;6.50;;;4.70;;
51660;SDS011;37741;49.748;8.490;2024-03-02T00:20:55;7.15;;;4.63;;
51660;SDS011;37741;49.748;8.490;2024-03-02T00:23:22;7.07;;;4.93;;
51660;SDS011;37741;49.748;8.490;2024-03-02T00:25:53;9.00;;;5.38;;
51660;SDS011;37741;49.748;8.490;2024-03-02T00:28:20;6.95;;;4.95;;
51660;SDS011;37741;49.748;8.490;2024-03-02T00:33:39;6.90;;;4.45;;
51660;SDS011;37741;49.748;8.490;2024-03-02T00:36:10;9.02;;;4.97;;
51660;SDS011;37741;49.748;8.490;2024-03-02T00:38:49;8.57;;;5.22;;
51660;SDS011;37741;49.748;8.490;2024-03-02T00:41:24;7.38;;;5.20;;
51660;SDS011;37741;49.748;8.490;2024-03-02T00:44:01;6.65;;;4.85;;
51660;SDS011;37741;49.748;8.490;2024-03-02T00:46:35;6.60;;;5.07;;
51660;SDS011;37741;49.748;8.490;2024-03-02T00:49:02;8.15;;;5.72;;
51660;SDS011;37741;49.748;8.490;2024-03-02T00:51:30;8.57;;;5.85;;
51660;SDS011;37741;49.748;8.490;2024-03-02T00:54:01;8.80;;;5.75;;
51660;SDS011;37741;49.748;8.490;2024-03-02T00:56:29;8.50;;;6.50;;
51660;SDS011;37741;49.748;8.490;2024-03-02T00:58:55;7.63;;;5.53;;
51660;SDS011;37741;49.748;8.490;2024-03-02T01:01:21;6.90;;;5.45;;
51660;SDS011;37741;49.748;8.490;2024-03-02T01:03:47;7.90;;;5.75;;
51660;SDS011;37741;49.748;8.490;2024-03-02T01:06:14;9.13;;;6.20;;
51660;SDS011;37741;49.748;8.490;2024-03-02T01:08:40;8.10;;;5.88;;
51660;SDS011;37741;49.748;8.490;2024-03-02T01:11:06;8.43;;;6.13;;
51660;SDS011;37741;49.748;8.490;2024-03-02T01:13:32;9.10;;;6.55;;
51660;SDS011;37741;49.748;8.490;2024-03-02T01:15:57;8.73;;;6.35;;
51660;SDS011;37741;49.748;8.490;2024-03-02T01:18:23;9.43;;;5.93;;
51660;SDS011;37741;49.748;8.490;2024-03-02T01:20:50;8.48;;;5.80;;
51660;SDS011;37741;49.748;8.490;2024-03-02T01:23:21;8.63;;;6.70;;
51660;SDS011;37741;49.748;8.490;2024-03-02T01:25:50;10.55;;;6.60;;
51660;SDS011;37741;49.748;8.490;2024-03-02T01:28:17;8.48;;;6.10;;
51660;SDS011;37741;49.748;8.490;2024-03-02T01:30:44;7.88;;;6.35;;
51660;SDS011;37741;49.748;8.490;2024-03-02T01:33:10;10.68;;;6.72;;
51660;SDS011;37741;49.748;8.490;2024-03-02T01:35:35;8.27;;;5.95;;
51660;SDS011;37741;49.748;8.490;2024-03-02T01:38:02;8.45;;;6.18;;
51660;SDS011;37741;49.748;8.490;2024-03-02T01:40:28;9.68;;;6.07;;
51660;SDS011;37741;49.748;8.490;2024-03-02T01:42:54;10.77;;;7.43;;
51660;SDS011;37741;49.748;8.490;2024-03-02T01:45:20;8.63;;;6.18;;
51660;SDS011;37741;49.748;8.490;2024-03-02T01:47:47;11.43;;;6.53;;
51660;SDS011;37741;49.748;8.490;2024-03-02T01:50:13;9.55;;;6.32;;
51660;SDS011;37741;49.748;8.490;2024-03-02T01:52:39;9.93;;;7.07;;
51660;SDS011;37741;49.748;8.490;2024-03-02T01:55:05;9.85;;;6.68;;
51660;SDS011;37741;49.748;8.490;2024-03-02T01:57:31;9.18;;;6.78;;
51660;SDS011;37741;49.748;8.490;2024-03-02T01:59:57;8.38;;;6.07;;
51660;SDS011;37741;49.748;8.490;2024-03-02T02:02:23;9.32;;;7.22;;
51660;SDS011;37741;49.748;8.490;2024-03-02T02:04:49;11.10;;;6.72;;
51660;SDS011;37741;49.748;8.490;2024-03-02T02:07:15;9.68;;;6.78;;
51660;SDS011;37741;49.748;8.490;2024-03-02T02:09:41;9.18;;;7.18;;
51660;SDS011;37741;49.748;8.490;2024-03-02T02:12:07;7.60;;;6.25;;
51660;SDS011;37741;49.748;8.490;2024-03-02T02:14:33;10.82;;;6.97;;
51660;SDS011;37741;49.748;8.490;2024-03-02T02:16:59;10.80;;;6.45;;
51660;SDS011;37741;49.748;8.490;2024-03-02T02:19:25;9.13;;;6.30;;
51660;SDS011;37741;49.748;8.490;2024-03-02T02:21:50;8.38;;;6.25;;
51660;SDS011;37741;49.748;8.490;2024-03-02T02:24:16;9.68;;;6.88;;
51660;SDS011;37741;49.748;8.490;2024-03-02T02:26:41;8.32;;;6.20;;
51660;SDS011;37741;49.748;8.490;2024-03-02T02:29:07;9.18;;;6.55;;
51660;SDS011;37741;49.748;8.490;2024-03-02T02:31:36;9.35;;;6.40;;
51660;SDS011;37741;49.748;8.490;2024-03-02T02:34:03;9.95;;;6.68;;
51660;SDS011;37741;49.748;8.490;2024-03-02T02:36:28;8.15;;;6.22;;
51660;SDS011;37741;49.748;8.490;2024-03-02T02:38:54;10.07;;;7.18;;
51660;SDS011;37741;49.748;8.490;2024-03-02T02:41:20;10.10;;;6.90;;
51660;SDS011;37741;49.748;8.490;2024-03-02T02:43:45;11.65;;;6.97;;
51660;SDS011;37741;49.748;8.490;2024-03-02T02:46:11;10.45;;;6.75;;
51660;SDS011;37741;49.748;8.490;2024-03-02T02:48:37;10.43;;;6.95;;
51660;SDS011;37741;49.748;8.490;2024-03-02T02:51:02;10.05;;;7.03;;
51660;SDS011;37741;49.748;8.490;2024-03-02T02:53:28;9.48;;;7.28;;
51660;SDS011;37741;49.748;8.490;2024-03-02T02:55:54;9.85;;;7.38;;
51660;SDS011;37741;49.748;8.490;2024-03-02T02:58:19;10.43;;;7.95;;
51660;SDS011;37741;49.748;8.490;2024-03-02T03:00:46;10.75;;;7.18;;
51660;SDS011;37741;49.748;8.490;2024-03-02T03:03:12;11.15;;;8.32;;
51660;SDS011;37741;49.748;8.490;2024-03-02T03:05:37;11.90;;;8.07;;
51660;SDS011;37741;49.748;8.490;2024-03-02T03:08:03;12.00;;;8.30;;
51660;SDS011;37741;49.748;8.490;2024-03-02T03:10:29;12.05;;;8.57;;
51660;SDS011;37741;49.748;8.490;2024-03-02T03:12:54;11.50;;;8.00;;
51660;SDS011;37741;49.748;8.490;2024-03-02T03:15:21;11.85;;;7.82;;
51660;SDS011;37741;49.748;8.490;2024-03-02T03:17:46;9.32;;;7.20;;
51660;SDS011;37741;49.748;8.490;2024-03-02T03:20:12;11.00;;;8.18;;
51660;SDS011;37741;49.748;8.490;2024-03-02T03:22:58;11.02;;;7.82;;
51660;SDS011;37741;49.748;8.490;2024-03-02T03:25:23;10.52;;;7.88;;
51660;SDS011;37741;49.748;8.490;2024-03-02T03:27:49;13.70;;;8.45;;
51660;SDS011;37741;49.748;8.490;2024-03-02T03:30:17;10.00;;;7.80;;
51660;SDS011;37741;49.748;8.490;2024-03-02T03:32:43;11.00;;;8.07;;
51660;SDS011;37741;49.748;8.490;2024-03-02T03:35:08;11.85;;;7.90;;
51660;SDS011;37741;49.748;8.490;2024-03-02T03:37:34;9.48;;;7.25;;
51660;SDS011;37741;49.748;8.490;2024-03-02T03:40:01;10.25;;;7.40;;
51660;SDS011;37741;49.748;8.490;2024-03-02T03:42:27;10.38;;;7.60;;
51660;SDS011;37741;49.748;8.490;2024-03-02T03:44:53;9.60;;;7.47;;
51660;SDS011;37741;49.748;8.490;2024-03-02T03:47:19;11.05;;;7.65;;
51660;SDS011;37741;49.748;8.490;2024-03-02T03:49:45;14.18;;;7.75;;
51660;SDS011;37741;49.748;8.490;2024-03-02T03:52:11;10.43;;;7.93;;
51660;SDS011;37741;49.748;8.490;2024-03-02T03:54:36;11.80;;;8.00;;
51660;SDS011;37741;49.748;8.490;2024-03-02T03:57:03;11.85;;;8.52;;
51660;SDS011;37741;49.748;8.490;2024-03-02T03:59:29;10.68;;;7.93;;
51660;SDS011;37741;49.748;8.490;2024-03-02T04:01:55;10.63;;;8.07;;
51660;SDS011;37741;49.748;8.490;2024-03-02T04:04:21;9.68;;;8.15;;
51660;SDS011;37741;49.748;8.490;2024-03-02T04:06:47;11.07;;;8.00;;
51660;SDS011;37741;49.748;8.490;2024-03-02T04:09:13;10.88;;;7.85;;
51660;SDS011;37741;49.748;8.490;2024-03-02T04:11:38;9.90;;;7.45;;
51660;SDS011;37741;49.748;8.490;2024-03-02T04:14:04;10.25;;;7.75;;
51660;SDS011;37741;49.748;8.490;2024-03-02T04:16:31;10.65;;;7.93;;
51660;SDS011;37741;49.748;8.490;2024-03-02T04:18:57;10.93;;;7.53;;
51660;SDS011;37741;49.748;8.490;2024-03-02T04:21:22;11.43;;;8.40;;
51660;SDS011;37741;49.748;8.490;2024-03-02T04:23:48;9.57;;;7.25;;
51660;SDS011;37741;49.748;8.490;2024-03-02T04:26:14;12.25;;;7.10;;
51660;SDS011;37741;49.748;8.490;2024-03-02T04:28:40;11.45;;;7.38;;
51660;SDS011;37741;49.748;8.490;2024-03-02T04:31:05;11.57;;;7.97;;
51660;SDS011;37741;49.748;8.490;2024-03-02T04:33:31;10.35;;;7.25;;
51660;SDS011;37741;49.748;8.490;2024-03-02T04:35:57;13.23;;;7.63;;
51660;SDS011;37741;49.748;8.490;2024-03-02T04:38:22;11.07;;;7.75;;
51660;SDS011;37741;49.748;8.490;2024-03-02T04:40:48;10.25;;;7.65;;
51660;SDS011;37741;49.748;8.490;2024-03-02T04:43:14;11.88;;;7.95;;
51660;SDS011;37741;49.748;8.490;2024-03-02T04:45:41;11.90;;;8.40;;
51660;SDS011;37741;49.748;8.490;2024-03-02T04:48:07;10.95;;;8.30;;
51660;SDS011;37741;49.748;8.490;2024-03-02T04:50:33;10.27;;;7.53;;
51660;SDS011;37741;49.748;8.490;2024-03-02T04:52:59;11.68;;;8.32;;
51660;SDS011;37741;49.748;8.490;2024-03-02T04:55:25;11.40;;;7.57;;
51660;SDS011;37741;49.748;8.490;2024-03-02T04:57:53;10.73;;;7.72;;
51660;SDS011;37741;49.748;8.490;2024-03-02T05:00:22;10.02;;;7.40;;
51660;SDS011;37741;49.748;8.490;2024-03-02T05:02:48;10.93;;;8.07;;
51660;SDS011;37741;49.748;8.490;2024-03-02T05:05:14;11.38;;;7.72;;
51660;SDS011;37741;49.748;8.490;2024-03-02T05:07:40;11.05;;;7.82;;
51660;SDS011;37741;49.748;8.490;2024-03-02T05:10:10;11.77;;;8.48;;
51660;SDS011;37741;49.748;8.490;2024-03-02T05:12:36;11.13;;;7.90;;
51660;SDS011;37741;49.748;8.490;2024-03-02T05:15:11;13.10;;;8.20;;
51660;SDS011;37741;49.748;8.490;2024-03-02T05:17:41;9.85;;;7.35;;
51660;SDS011;37741;49.748;8.490;2024-03-02T05:20:10;10.93;;;7.25;;
51660;SDS011;37741;49.748;8.490;2024-03-02T05:22:36;13.98;;;8.52;;
51660;SDS011;37741;49.748;8.490;2024-03-02T05:25:06;11.00;;;8.05;;
51660;SDS011;37741;49.748;8.490;2024-03-02T05:27:35;11.10;;;8.15;;
51660;SDS011;37741;49.748;8.490;2024-03-02T05:30:01;10.45;;;7.63;;
51660;SDS011;37741;49.748;8.490;2024-03-02T05:32:27;10.80;;;7.78;;
51660;SDS011;37741;49.748;8.490;2024-03-02T05:34:53;10.32;;;7.82;;
51660;SDS011;37741;49.748;8.490;2024-03-02T05:37:18;11.63;;;7.82;;
51660;SDS011;37741;49.748;8.490;2024-03-02T05:39:45;11.20;;;8.07;;
51660;SDS011;37741;49.748;8.490;2024-03-02T05:42:10;10.27;;;7.13;;
51660;SDS011;37741;49.748;8.490;2024-03-02T05:44:36;11.07;;;7.63;;
51660;SDS011;37741;49.748;8.490;2024-03-02T05:47:05;10.60;;;7.88;;
51660;SDS011;37741;49.748;8.490;2024-03-02T05:49:33;10.10;;;7.05;;
51660;SDS011;37741;49.748;8.490;2024-03-02T05:51:59;9.40;;;7.30;;
51660;SDS011;37741;49.748;8.490;2024-03-02T05:54:25;11.02;;;8.27;;
51660;SDS011;37741;49.748;8.490;2024-03-02T05:56:51;11.02;;;7.63;;
51660;SDS011;37741;49.748;8.490;2024-03-02T05:59:16;12.70;;;7.22;;
51660;SDS011;37741;49.748;8.490;2024-03-02T06:01:43;10.95;;;7.88;;
51660;SDS011;37741;49.748;8.490;2024-03-02T06:04:09;11.60;;;7.78;;
51660;SDS011;37741;49.748;8.490;2024-03-02T06:06:36;9.88;;;7.07;;
51660;SDS011;37741;49.748;8.490;2024-03-02T06:09:02;10.52;;;7.32;;
51660;SDS011;37741;49.748;8.490;2024-03-02T06:11:38;11.18;;;6.53;;
51660;SDS011;37741;49.748;8.490;2024-03-02T06:14:05;10.90;;;7.57;;
51660;SDS011;37741;49.748;8.490;2024-03-02T06:16:31;9.77;;;7.15;;
51660;SDS011;37741;49.748;8.490;2024-03-02T06:18:57;10.63;;;7.10;;
51660;SDS011;37741;49.748;8.490;2024-03-02T06:21:23;10.85;;;7.90;;
51660;SDS011;37741;49.748;8.490;2024-03-02T06:23:49;10.10;;;7.82;;
51660;SDS011;37741;49.748;8.490;2024-03-02T06:26:15;9.52;;;6.85;;
51660;SDS011;37741;49.748;8.490;2024-03-02T06:28:41;10.13;;;7.18;;
51660;SDS011;37741;49.748;8.490;2024-03-02T06:31:08;9.60;;;6.53;;
51660;SDS011;37741;49.748;8.490;2024-03-02T06:33:34;9.73;;;6.93;;
51660;SDS011;37741;49.748;8.490;2024-03-02T06:36:00;10.30;;;7.50;;
51660;SDS011;37741;49.748;8.490;2024-03-02T06:38:26;10.80;;;7.45;;
51660;SDS011;37741;49.748;8.490;2024-03-02T06:40:51;10.00;;;7.90;;
51660;SDS011;37741;49.748;8.490;2024-03-02T06:43:23;9.95;;;7.30;;
51660;SDS011;37741;49.748;8.490;2024-03-02T06:45:49;10.85;;;7.82;;
51660;SDS011;37741;49.748;8.490;2024-03-02T06:48:15;10.88;;;7.75;;
51660;SDS011;37741;49.748;8.490;2024-03-02T06:50:45;9.15;;;6.80;;
51660;SDS011;37741;49.748;8.490;2024-03-02T06:53:14;10.50;;;7.65;;
51660;SDS011;37741;49.748;8.490;2024-03-02T06:55:42;9.32;;;6.80;;
51660;SDS011;37741;49.748;8.490;2024-03-02T06:58:09;9.32;;;6.25;;
51660;SDS011;37741;49.748;8.490;2024-03-02T07:00:36;9.93;;;6.53;;
51660;SDS011;37741;49.748;8.490;2024-03-02T07:03:01;10.18;;;7.53;;
51660;SDS011;37741;49.748;8.490;2024-03-02T07:05:27;9.77;;;6.82;;
51660;SDS011;37741;49.748;8.490;2024-03-02T07:07:53;10.38;;;6.75;;
51660;SDS011;37741;49.748;8.490;2024-03-02T07:10:18;9.15;;;6.70;;
51660;SDS011;37741;49.748;8.490;2024-03-02T07:12:44;9.45;;;6.53;;
51660;SDS011;37741;49.748;8.490;2024-03-02T07:15:09;9.80;;;7.10;;
51660;SDS011;37741;49.748;8.490;2024-03-02T07:17:53;9.35;;;6.68;;
51660;SDS011;37741;49.748;8.490;2024-03-02T07:20:19;10.10;;;6.75;;
51660;SDS011;37741;49.748;8.490;2024-03-02T07:22:45;11.90;;;7.68;;
51660;SDS011;37741;49.748;8.490;2024-03-02T07:25:11;9.32;;;7.13;;
51660;SDS011;37741;49.748;8.490;2024-03-02T07:27:37;8.82;;;6.80;;
51660;SDS011;37741;49.748;8.490;2024-03-02T07:30:03;8.95;;;6.60;;
51660;SDS011;37741;49.748;8.490;2024-03-02T07:32:29;9.40;;;6.97;;
51660;SDS011;37741;49.748;8.490;2024-03-02T07:34:55;10.73;;;7.40;;
51660;SDS011;37741;49.748;8.490;2024-03-02T07:37:21;8.52;;;6.43;;
51660;SDS011;37741;49.748;8.490;2024-03-02T07:39:47;9.07;;;6.47;;
51660;SDS011;37741;49.748;8.490;2024-03-02T07:42:13;10.68;;;7.20;;
51660;SDS011;37741;49.748;8.490;2024-03-02T07:44:39;11.32;;;6.88;;
51660;SDS011;37741;49.748;8.490;2024-03-02T07:47:04;12.30;;;7.68;;
51660;SDS011;37741;49.748;8.490;2024-03-02T07:49:30;10.63;;;7.13;;
51660;SDS011;37741;49.748;8.490;2024-03-02T07:51:56;10.52;;;7.53;;
51660;SDS011;37741;49.748;8.490;2024-03-02T07:54:21;8.77;;;6.95;;
51660;SDS011;37741;49.748;8.490;2024-03-02T07:56:48;9.38;;;6.90;;
51660;SDS011;37741;49.748;8.490;2024-03-02T07:59:14;11.15;;;8.02;;
51660;SDS011;37741;49.748;8.490;2024-03-02T08:01:39;10.07;;;7.07;;
51660;SDS011;37741;49.748;8.490;2024-03-02T08:04:05;10.73;;;7.57;;
51660;SDS011;37741;49.748;8.490;2024-03-02T08:06:31;10.95;;;7.88;;
51660;SDS011;37741;49.748;8.490;2024-03-02T08:11:11;39.90;;;12.02;;
51660;SDS011;37741;49.748;8.490;2024-03-02T08:13:37;22.15;;;11.52;;
51660;SDS011;37741;49.748;8.490;2024-03-02T08:16:03;18.50;;;10.88;;
51660;SDS011;37741;49.748;8.490;2024-03-02T08:18:32;13.63;;;10.50;;
51660;SDS011;37741;49.748;8.490;2024-03-02T08:20:57;20.23;;;13.00;;
51660;SDS011;37741;49.748;8.490;2024-03-02T08:23:23;46.85;;;12.75;;
51660;SDS011;37741;49.748;8.490;2024-03-02T08:25:49;20.33;;;13.10;;
51660;SDS011;37741;49.748;8.490;2024-03-02T08:28:14;21.65;;;12.43;;
51660;SDS011;37741;49.748;8.490;2024-03-02T08:30:40;22.42;;;13.90;;
51660;SDS011;37741;49.748;8.490;2024-03-02T08:33:05;17.30;;;12.82;;
51660;SDS011;37741;49.748;8.490;2024-03-02T08:35:31;70.13;;;17.55;;
51660;SDS011;37741;49.748;8.490;2024-03-02T08:38:01;45.75;;;17.02;;
51660;SDS011;37741;49.748;8.490;2024-03-02T08:40:28;60.97;;;18.67;;
51660;SDS011;37741;49.748;8.490;2024-03-02T08:42:54;39.70;;;15.85;;
51660;SDS011;37741;49.748;8.490;2024-03-02T08:45:19;28.40;;;14.65;;
51660;SDS011;37741;49.748;8.490;2024-03-02T08:47:45;29.50;;;14.63;;
51660;SDS011;37741;49.748;8.490;2024-03-02T08:50:11;18.35;;;12.95;;
51660;SDS011;37741;49.748;8.490;2024-03-02T08:52:37;21.08;;;14.65;;
51660;SDS011;37741;49.748;8.490;2024-03-02T08:55:03;20.30;;;16.38;;
51660;SDS011;37741;49.748;8.490;2024-03-02T08:57:29;23.77;;;15.50;;
51660;SDS011;37741;49.748;8.490;2024-03-02T08:59:55;18.55;;;15.50;;
51660;SDS011;37741;49.748;8.490;2024-03-02T09:02:21;27.27;;;19.73;;
51660;SDS011;37741;49.748;8.490;2024-03-02T09:04:47;22.00;;;15.70;;
51660;SDS011;37741;49.748;8.490;2024-03-02T09:07:14;22.15;;;15.68;;
51660;SDS011;37741;49.748;8.490;2024-03-02T09:09:39;19.13;;;15.75;;
51660;SDS011;37741;49.748;8.490;2024-03-02T09:12:05;20.48;;;15.23;;
51660;SDS011;37741;49.748;8.490;2024-03-02T09:14:32;18.15;;;14.18;;
51660;SDS011;37741;49.748;8.490;2024-03-02T09:16:57;29.65;;;14.82;;
51660;SDS011;37741;49.748;8.490;2024-03-02T09:19:23;25.27;;;15.25;;
51660;SDS011;37741;49.748;8.490;2024-03-02T09:21:49;34.00;;;19.08;;
51660;SDS011;37741;49.748;8.490;2024-03-02T09:24:15;38.30;;;19.40;;
51660;SDS011;37741;49.748;8.490;2024-03-02T09:26:41;47.33;;;20.23;;
51660;SDS011;37741;49.748;8.490;2024-03-02T09:29:06;33.20;;;18.80;;
51660;SDS011;37741;49.748;8.490;2024-03-02T09:31:32;59.70;;;18.70;;
51660;SDS011;37741;49.748;8.490;2024-03-02T09:33:57;47.33;;;16.65;;
51660;SDS011;37741;49.748;8.490;2024-03-02T09:36:23;53.75;;;17.63;;
51660;SDS011;37741;49.748;8.490;2024-03-02T09:38:49;39.58;;;16.67;;
51660;SDS011;37741;49.748;8.490;2024-03-02T09:41:14;61.03;;;18.90;;
51660;SDS011;37741;49.748;8.490;2024-03-02T09:43:40;42.85;;;18.63;;
51660;SDS011;37741;49.748;8.490;2024-03-02T09:46:09;31.13;;;17.58;;
51660;SDS011;37741;49.748;8.490;2024-03-02T09:48:35;25.85;;;16.75;;
51660;SDS011;37741;49.748;8.490;2024-03-02T09:51:01;22.67;;;15.35;;
51660;SDS011;37741;49.748;8.490;2024-03-02T09:53:32;23.92;;;15.45;;
51660;SDS011;37741;49.748;8.490;2024-03-02T09:55:59;15.98;;;13.02;;
51660;SDS011;37741;49.748;8.490;2024-03-02T09:58:25;16.85;;;11.90;;
51660;SDS011;37741;49.748;8.490;2024-03-02T10:00:51;16.20;;;10.60;;
51660;SDS011;37741;49.748;8.490;2024-03-02T10:03:18;11.57;;;8.77;;
51660;SDS011;37741;49.748;8.490;2024-03-02T10:05:44;11.10;;;9.45;;
51660;SDS011;37741;49.748;8.490;2024-03-02T10:08:10;10.75;;;8.23;;
51660;SDS011;37741;49.748;8.490;2024-03-02T10:10:36;11.38;;;8.02;;
51660;SDS011;37741;49.748;8.490;2024-03-02T10:13:08;11.43;;;7.97;;
51660;SDS011;37741;49.748;8.490;2024-03-02T10:15:35;11.63;;;8.07;;
51660;SDS011;37741;49.748;8.490;2024-03-02T10:18:11;10.20;;;8.07;;
51660;SDS011;37741;49.748;8.490;2024-03-02T10:20:38;12.18;;;7.95;;
51660;SDS011;37741;49.748;8.490;2024-03-02T10:23:14;14.18;;;8.00;;
51660;SDS011;37741;49.748;8.490;2024-03-02T10:25:42;10.85;;;6.43;;
51660;SDS011;37741;49.748;8.490;2024-03-02T10:28:08;10.18;;;6.57;;
51660;SDS011;37741;49.748;8.490;2024-03-02T10:30:34;12.82;;;6.70;;
51660;SDS011;37741;49.748;8.490;2024-03-02T10:33:01;12.02;;;6.35;;
51660;SDS011;37741;49.748;8.490;2024-03-02T10:35:27;11.50;;;7.38;;
51660;SDS011;37741;49.748;8.490;2024-03-02T10:37:53;10.75;;;5.75;;
51660;SDS011;37741;49.748;8.490;2024-03-02T10:40:22;8.43;;;6.18;;
51660;SDS011;37741;49.748;8.490;2024-03-02T10:42:49;6.90;;;5.60;;
51660;SDS011;37741;49.748;8.490;2024-03-02T10:45:19;9.45;;;6.45;;
51660;SDS011;37741;49.748;8.490;2024-03-02T10:47:46;8.13;;;5.10;;
51660;SDS011;37741;49.748;8.490;2024-03-02T10:50:12;8.02;;;5.53;;
51660;SDS011;37741;49.748;8.490;2024-03-02T10:52:38;6.53;;;5.05;;
51660;SDS011;37741;49.748;8.490;2024-03-02T10:55:05;9.50;;;6.57;;
51660;SDS011;37741;49.748;8.490;2024-03-02T11:00:19;13.93;;;5.70;;
51660;SDS011;37741;49.748;8.490;2024-03-02T11:02:52;22.38;;;7.00;;
51660;SDS011;37741;49.748;8.490;2024-03-02T11:05:28;17.45;;;6.65;;
51660;SDS011;37741;49.748;8.490;2024-03-02T11:08:05;9.20;;;6.03;;
51660;SDS011;37741;49.748;8.490;2024-03-02T11:10:34;6.72;;;5.20;;
51660;SDS011;37741;49.748;8.490;2024-03-02T11:13:02;11.85;;;6.20;;
51660;SDS011;37741;49.748;8.490;2024-03-02T11:15:31;12.68;;;6.38;;
51660;SDS011;37741;49.748;8.490;2024-03-02T11:18:03;8.80;;;5.43;;
51660;SDS011;37741;49.748;8.490;2024-03-02T11:20:33;9.05;;;5.90;;
51660;SDS011;37741;49.748;8.490;2024-03-02T11:23:06;8.18;;;5.32;;
51660;SDS011;37741;49.748;8.490;2024-03-02T11:25:32;6.82;;;5.50;;
51660;SDS011;37741;49.748;8.490;2024-03-02T11:28:02;8.18;;;5.55;;
51660;SDS011;37741;49.748;8.490;2024-03-02T11:32:57;8.27;;;5.75;;
51660;SDS011;37741;49.748;8.490;2024-03-02T11:35:36;8.25;;;5.80;;
51660;SDS011;37741;49.748;8.490;2024-03-02T11:38:12;8.40;;;5.05;;
51660;SDS011;37741;49.748;8.490;2024-03-02T11:40:41;7.65;;;5.90;;
51660;SDS011;37741;49.748;8.490;2024-03-02T11:43:07;10.30;;;6.20;;
51660;SDS011;37741;49.748;8.490;2024-03-02T11:45:33;7.22;;;5.22;;
51660;SDS011;37741;49.748;8.490;2024-03-02T11:48:04;7.35;;;5.32;;
51660;SDS011;37741;49.748;8.490;2024-03-02T11:53:11;5.72;;;4.50;;
51660;SDS011;37741;49.748;8.490;2024-03-02T11:55:38;8.75;;;5.30;;
51660;SDS011;37741;49.748;8.490;2024-03-02T11:58:11;8.18;;;4.50;;
51660;SDS011;37741;49.748;8.490;2024-03-02T12:00:37;8.10;;;4.68;;
51660;SDS011;37741;49.748;8.490;2024-03-02T12:03:04;9.80;;;5.70;;
51660;SDS011;37741;49.748;8.490;2024-03-02T12:05:31;10.68;;;5.05;;
51660;SDS011;37741;49.748;8.490;2024-03-02T12:07:58;9.57;;;4.78;;
51660;SDS011;37741;49.748;8.490;2024-03-02T12:10:29;25.05;;;6.35;;
51660;SDS011;37741;49.748;8.490;2024-03-02T12:13:14;13.27;;;5.07;;
51660;SDS011;37741;49.748;8.490;2024-03-02T12:15:40;9.80;;;3.88;;
51660;SDS011;37741;49.748;8.490;2024-03-02T12:18:05;6.70;;;3.65;;
51660;SDS011;37741;49.748;8.490;2024-03-02T12:20:32;6.85;;;3.63;;
51660;SDS011;37741;49.748;8.490;2024-03-02T12:22:58;5.63;;;3.33;;
51660;SDS011;37741;49.748;8.490;2024-03-02T12:25:26;4.45;;;2.60;;
51660;SDS011;37741;49.748;8.490;2024-03-02T12:27:56;3.65;;;2.42;;
51660;SDS011;37741;49.748;8.490;2024-03-02T12:30:23;6.07;;;3.10;;
51660;SDS011;37741;49.748;8.490;2024-03-02T12:32:49;5.30;;;3.05;;
51660;SDS011;37741;49.748;8.490;2024-03-02T12:35:15;6.80;;;2.70;;
51660;SDS011;37741;49.748;8.490;2024-03-02T12:37:47;3.88;;;2.08;;
51660;SDS011;37741;49.748;8.490;2024-03-02T12:40:14;6.80;;;2.33;;
51660;SDS011;37741;49.748;8.490;2024-03-02T12:42:42;4.00;;;2.13;;
51660;SDS011;37741;49.748;8.490;2024-03-02T12:45:08;3.45;;;2.00;;
51660;SDS011;37741;49.748;8.490;2024-03-02T12:47:34;4.40;;;2.28;;
51660;SDS011;37741;49.748;8.490;2024-03-02T12:50:00;7.85;;;2.63;;
51660;SDS011;37741;49.748;8.490;2024-03-02T12:52:28;4.03;;;2.40;;
51660;SDS011;37741;49.748;8.490;2024-03-02T12:54:54;3.95;;;2.05;;
51660;SDS011;37741;49.748;8.490;2024-03-02T12:57:25;5.82;;;2.03;;
51660;SDS011;37741;49.748;8.490;2024-03-02T12:59:52;9.70;;;2.60;;
51660;SDS011;37741;49.748;8.490;2024-03-02T13:02:22;4.63;;;2.20;;
51660;SDS011;37741;49.748;8.490;2024-03-02T13:04:53;4.03;;;1.90;;
51660;SDS011;37741;49.748;8.490;2024-03-02T13:07:20;2.85;;;1.40;;
51660;SDS011;37741;49.748;8.490;2024-03-02T13:09:47;7.78;;;1.70;;
51660;SDS011;37741;49.748;8.490;2024-03-02T13:12:15;4.43;;;1.80;;
51660;SDS011;37741;49.748;8.490;2024-03-02T13:14:42;2.70;;;1.77;;
51660;SDS011;37741;49.748;8.490;2024-03-02T13:17:08;2.80;;;1.30;;
51660;SDS011;37741;49.748;8.490;2024-03-02T13:19:43;3.22;;;1.35;;
51660;SDS011;37741;49.748;8.490;2024-03-02T13:22:22;3.53;;;1.80;;
51660;SDS011;37741;49.748;8.490;2024-03-02T13:24:48;9.52;;;3.28;;
51660;SDS011;37741;49.748;8.490;2024-03-02T13:27:14;4.13;;;1.95;;
51660;SDS011;37741;49.748;8.490;2024-03-02T13:29:41;2.85;;;1.45;;
51660;SDS011;37741;49.748;8.490;2024-03-02T13:32:07;2.78;;;1.20;;
51660;SDS011;37741;49.748;8.490;2024-03-02T13:34:34;4.18;;;1.30;;
51660;SDS011;37741;49.748;8.490;2024-03-02T13:37:00;2.30;;;1.05;;
51660;SDS011;37741;49.748;8.490;2024-03-02T13:39:27;3.55;;;1.35;;
51660;SDS011;37741;49.748;8.490;2024-03-02T13:41:52;4.65;;;1.05;;
51660;SDS011;37741;49.748;8.490;2024-03-02T13:44:22;5.65;;;0.75;;
51660;SDS011;37741;49.748;8.490;2024-03-02T13:46:48;1.73;;;0.63;;
51660;SDS011;37741;49.748;8.490;2024-03-02T13:49:14;4.75;;;0.77;;
51660;SDS011;37741;49.748;8.490;2024-03-02T13:51:39;1.85;;;0.80;;
51660;SDS011;37741;49.748;8.490;2024-03-02T13:54:05;2.80;;;0.80;;
51660;SDS011;37741;49.748;8.490;2024-03-02T13:56:31;3.10;;;0.82;;
51660;SDS011;37741;49.748;8.490;2024-03-02T13:58:57;3.15;;;0.80;;
51660;SDS011;37741;49.748;8.490;2024-03-02T14:01:24;3.45;;;0.73;;
51660;SDS011;37741;49.748;8.490;2024-03-02T14:03:50;1.95;;;1.00;;
51660;SDS011;37741;49.748;8.490;2024-03-02T14:06:16;1.98;;;0.90;;
51660;SDS011;37741;49.748;8.490;2024-03-02T14:08:41;2.20;;;1.10;;
51660;SDS011;37741;49.748;8.490;2024-03-02T14:11:09;3.25;;;1.05;;
51660;SDS011;37741;49.748;8.490;2024-03-02T14:13:40;5.10;;;1.00;;
51660;SDS011;37741;49.748;8.490;2024-03-02T14:16:11;3.50;;;1.10;;
51660;SDS011;37741;49.748;8.490;2024-03-02T14:18:37;7.40;;;1.70;;
51660;SDS011;37741;49.748;8.490;2024-03-02T14:21:03;5.13;;;0.90;;
51660;SDS011;37741;49.748;8.490;2024-03-02T14:23:29;3.50;;;1.27;;
51660;SDS011;37741;49.748;8.490;2024-03-02T14:25:55;2.33;;;1.15;;
51660;SDS011;37741;49.748;8.490;2024-03-02T14:28:21;2.22;;;1.00;;
51660;SDS011;37741;49.748;8.490;2024-03-02T14:30:46;2.17;;;1.08;;
51660;SDS011;37741;49.748;8.490;2024-03-02T14:33:13;2.85;;;1.33;;
51660;SDS011;37741;49.748;8.490;2024-03-02T14:35:38;4.15;;;1.38;;
51660;SDS011;37741;49.748;8.490;2024-03-02T14:38:04;3.05;;;1.05;;
51660;SDS011;37741;49.748;8.490;2024-03-02T14:40:30;1.25;;;0.70;;
51660;SDS011;37741;49.748;8.490;2024-03-02T14:42:55;1.80;;;0.70;;
51660;SDS011;37741;49.748;8.490;2024-03-02T14:45:21;2.55;;;0.90;;
51660;SDS011;37741;49.748;8.490;2024-03-02T14:47:48;3.65;;;1.00;;
51660;SDS011;37741;49.748;8.490;2024-03-02T14:50:14;13.77;;;2.70;;